Terminal Aerodrome Forecast
Issued by NWS Memphis, TN

Home | Current Version | Previous Version | Text Only | Print | Product List | Glossary On
Versions: 1 2 3 4 5 6 7 8 9 10 11 12 13 14 15
000
FTUS44 KMEG 261130
TAFMKL
TAF
KMKL 261130Z 2612/2712 15003KT 6SM BR SCT250
     FM261700 08004KT P6SM VCTS SCT040CB SCT070 BKN250
     FM270100 00000KT P6SM SKC
      TEMPO 2706/2710 3SM BR
     FM271000 00000KT 3SM BR SKC=

USA.gov is the U.S. government's official web portal to all federal, state and local government web resources and services.